• Join FlightAware (Why Join?)
  • Login
  • US Flag 
01:33AM EST


 

Airport Tracker/Info


-or-


 

Live Flight TrackerFlight Track Log ✈ SWA279 ✈ 22-Apr-2013 ✈ KMHT - KDEN

Flight Track Log - Related Links

Times and Time Zones

All times are in EDT time to prevent confusion due to time zone crossing. See the SWA279 flight status page for this flight to view local times or setup timezone preferences in your user account.

Time Position Orientation Groundspeed Altitude Reporting Facility
EDT Latitude Longitude Course Direction KTS MPH feet Rate Location/Type
07:01AM 42.9500 -71.4167 North 149 171 1,400  Level KA90
07:03AM 43.0292 -71.4033 North 225 259 5,900 2,820 Climbing Boston Center
07:04AM 43.0531 -71.4911 290° West 203 234 8,700 2,700 Climbing Boston Center
07:05AM 43.0603 -71.6131 275° West 243 280 11,400 2,700 Climbing Boston Center
07:06AM 43.0650 -71.7325 273° West 322 371 14,100 2,880 Climbing Boston Center
07:07AM 43.0722 -71.8886 274° West 368 423 17,200 2,460 Climbing Boston Center
07:08AM 43.0769 -72.0194 273° West 379 436 19,100 2,100 Climbing Boston Center
07:09AM 43.0836 -72.1644 274° West 385 443 21,500 2,100 Climbing Boston Center
07:10AM 43.0922 -72.3206 274° West 391 450 23,400 2,040 Climbing Boston Center
07:11AM 43.0964 -72.4742 272° West 402 463 25,600 2,160 Climbing Boston Center
07:12AM 43.0983 -72.6506 271° West 418 481 27,800 2,280 Climbing Boston Center
07:13AM 43.1022 -72.8042 272° West 418 481 30,200 2,220 Climbing Boston Center
07:14AM 43.1078 -72.9578 273° West 418 481 32,300 1,740 Climbing Boston Center
07:15AM 43.1156 -73.0914 275° West 408 470 33,700 1,260 Climbing Boston Center
07:16AM 43.1186 -73.2422 272° West 402 463 34,900 1,320 Climbing Boston Center
07:17AM 43.1194 -73.4100 270° West 402 463 36,400 1,320 Climbing Boston Center
07:18AM 43.1244 -73.5553 273° West 402 463 37,600 780 Climbing Boston Center
07:19AM 43.1272 -73.6917 272° West 402 463 38,000 180 Climbing Boston Center
07:20AM 43.1294 -73.8397 271° West 402 463 38,000  Level Boston Center
07:21AM 43.1339 -73.9936 272° West 402 463 38,000  Level Boston Center
07:22AM 43.1381 -74.1444 272° West 402 463 38,000  Level Boston Center
07:23AM 43.1417 -74.2983 272° West 402 463 38,000  Level Boston Center
07:24AM 43.1433 -74.4519 271° West 402 463 38,000  Level Boston Center
07:25AM 43.1469 -74.6028 272° West 402 463 38,000  Level Boston Center
07:26AM 43.1481 -74.7567 271° West 402 463 38,000  Level Boston Center
07:27AM 43.1511 -74.9106 272° West 402 463 38,000  Level Boston Center
07:28AM 43.1517 -75.0642 270° West 402 463 38,000  Level Boston Center
07:29AM 43.1544 -75.2181 271° West 402 463 38,000  Level Boston Center
07:30AM 43.1547 -75.3717 270° West 402 463 38,000  Level Boston Center
07:31AM 43.1569 -75.5283 271° West 402 463 38,000  Level Boston Center
07:32AM 43.1586 -75.6850 271° West 407 468 38,000  Level Boston Center
07:33AM 43.1603 -75.8419 271° West 407 468 38,000  Level Boston Center
07:34AM 43.1597 -75.9983 270° West 407 468 38,000  Level Boston Center
07:35AM 43.1389 -76.2836 264° West 420 483 38,000  Level Cleveland Center
07:36AM 43.0919 -76.4236 245° Southwest 411 473 38,000  Level Cleveland Center
07:37AM 43.0492 -76.5656 248° West 411 473 38,000  Level Cleveland Center
07:38AM 43.0019 -76.7106 246° West 411 473 38,000  Level Cleveland Center
07:39AM 42.9544 -76.8525 245° Southwest 411 473 38,000  Level Cleveland Center
07:40AM 42.9089 -76.9944 246° West 411 473 38,000  Level Cleveland Center
07:41AM 42.8611 -77.1358 245° Southwest 411 473 38,000  Level Cleveland Center
07:42AM 42.8172 -77.2742 247° West 406 467 38,000  Level Cleveland Center
07:43AM 42.7711 -77.4153 246° West 406 467 38,000  Level Cleveland Center
07:44AM 42.7267 -77.5447 245° Southwest 412 474 38,000  Level Cleveland Center
07:45AM 42.6806 -77.6939 247° West 412 474 38,000  Level Cleveland Center
07:46AM 42.6417 -77.8086 245° Southwest 412 474 38,000  Level Cleveland Center
07:47AM 42.5889 -77.9603 245° Southwest 407 468 38,000  Level Cleveland Center
07:48AM 42.5419 -78.1006 246° West 407 468 38,000  Level Cleveland Center
07:49AM 42.4947 -78.2403 245° Southwest 407 468 38,000  Level Cleveland Center
07:50AM 42.4475 -78.3800 245° Southwest 407 468 38,000  Level Cleveland Center
07:51AM 42.4000 -78.5222 246° West 407 468 38,000  Level Cleveland Center
07:52AM 42.3525 -78.6614 245° Southwest 407 468 38,000  Level Cleveland Center
07:53AM 42.3028 -78.8033 245° Southwest 407 468 38,000  Level Cleveland Center
07:54AM 42.2525 -78.9394 244° Southwest 407 468 38,000  Level Cleveland Center
07:55AM 42.2044 -79.0750 244° Southwest 407 468 38,000  Level Cleveland Center
07:56AM 42.1875 -79.2269 261° West 402 463 38,000  Level Cleveland Center
07:57AM 42.1850 -79.3811 269° West 407 468 38,000  Level Cleveland Center
07:58AM 42.1825 -79.5353 269° West 415 478 38,000  Level Cleveland Center
07:59AM 42.1794 -79.6867 268° West 415 478 38,000  Level Cleveland Center
08:00AM 42.1764 -79.8436 269° West 415 478 38,000  Level Cleveland Center
08:01AM 42.1711 -80.0172 268° West 420 483 38,000  Level Cleveland Center
08:02AM 42.1697 -80.1686 269° West 425 489 38,000  Level Cleveland Center
08:03AM 42.1639 -80.3256 267° West 416 479 38,000  Level Cleveland Center
08:04AM 42.1600 -80.4767 268° West 416 479 38,000  Level Cleveland Center
08:05AM 42.1581 -80.6364 269° West 421 484 38,000  Level Cleveland Center
08:06AM 42.1536 -80.7875 268° West 421 484 38,000  Level Cleveland Center
08:07AM 42.1492 -80.9472 268° West 421 484 38,000  Level Cleveland Center
08:08AM 42.1464 -81.1011 269° West 421 484 38,000  Level Cleveland Center
08:09AM 42.1394 -81.2553 267° West 421 484 38,000  Level Cleveland Center
08:10AM 42.1342 -81.3922 267° West 421 484 38,000  Level Cleveland Center
08:11AM 42.1289 -81.5492 267° West 421 484 38,000  Level Cleveland Center
08:12AM 42.1256 -81.7003 268° West 416 479 38,000  Level Cleveland Center
08:13AM 42.1175 -81.8539 266° West 416 479 38,000  Level Cleveland Center
08:14AM 42.1136 -82.0050 268° West 421 484 38,000  Level Cleveland Center
08:15AM 42.1031 -82.1756 265° West 415 478 38,000  Level Cleveland Center
08:16AM 42.0947 -82.3292 266° West 415 478 38,000  Level Cleveland Center
08:17AM 42.0942 -82.4858 270° West 421 484 38,000  Level Cleveland Center
08:18AM 42.0811 -82.6367 263° West 421 484 38,000  Level Cleveland Center
08:19AM 42.0786 -82.7847 269° West 416 479 38,000  Level Cleveland Center
08:20AM 42.0711 -82.9411 266° West 416 479 38,000  Level Cleveland Center
08:21AM 42.0639 -83.0947 266° West 416 479 38,000  Level Cleveland Center
08:22AM 42.0561 -83.2539 266° West 423 487 38,000  Level Cleveland Center
08:23AM 42.0483 -83.4047 266° West 423 487 38,000  Level Cleveland Center
08:24AM 42.0381 -83.5581 265° West 418 481 38,000  Level Cleveland Center
08:25AM 42.0236 -83.7139 263° West 418 481 38,000  Level Cleveland Center
08:26AM 42.0094 -83.8500 262° West 423 487 38,000  Level Cleveland Center
08:27AM 41.9944 -84.0058 263° West 423 487 38,000  Level Cleveland Center
08:28AM 41.9814 -84.1589 264° West 423 487 38,000  Level Cleveland Center
08:31AM 41.9475 -84.5336 263° West 413 475 38,000  Level Chicago Center
08:32AM 41.9331 -84.6861 263° West 414 476 38,000  Level Chicago Center
08:33AM 41.9183 -84.8375 263° West 413 475 38,000  Level Chicago Center
08:34AM 41.9028 -84.9872 262° West 409 471 38,000  Level Chicago Center
08:35AM 41.8875 -85.1392 262° West 413 475 38,000  Level Chicago Center
08:36AM 41.8689 -85.3183 262° West 412 474 38,000  Level Chicago Center
08:37AM 41.8553 -85.4689 263° West 414 476 38,000  Level Chicago Center
08:38AM 41.8397 -85.6181 262° West 411 473 38,000  Level Chicago Center
08:39AM 41.8244 -85.7683 262° West 412 474 38,000  Level Chicago Center
08:40AM 41.8097 -85.9197 263° West 414 476 38,000  Level Chicago Center
08:41AM 41.7919 -86.1017 263° West 411 473 38,000  Level Chicago Center
08:42AM 41.7758 -86.2508 262° West 409 471 38,000  Level Chicago Center
08:43AM 41.7603 -86.4017 262° West 409 471 38,000  Level Chicago Center
08:44AM 41.7453 -86.5517 262° West 408 470 38,000  Level Chicago Center
08:45AM 41.7264 -86.7247 262° West 409 471 38,000 -360 Level Chicago Center
08:46AM 41.7147 -86.8764 264° West 411 473 37,300 -840 Descending Chicago Center
08:47AM 41.7103 -87.0275 268° West 408 470 36,300 -660 Descending Chicago Center
08:48AM 41.7042 -87.1736 267° West 397 457 36,000 -180 Descending Chicago Center
08:49AM 41.6986 -87.3225 267° West 401 461 36,000  Level Chicago Center
08:50AM 41.6914 -87.5003 267° West 402 463 36,000  Level Chicago Center
08:51AM 41.6839 -87.6503 266° West 406 467 36,000  Level Chicago Center
08:52AM 41.6778 -87.7986 267° West 405 466 36,000  Level Chicago Center
08:53AM 41.6706 -87.9464 266° West 404 465 36,000  Level Chicago Center
08:54AM 41.6617 -88.1225 266° West 404 465 36,000  Level Chicago Center
08:55AM 41.6553 -88.2700 267° West 405 466 36,000  Level Chicago Center
08:56AM 41.6481 -88.4175 266° West 404 465 36,000  Level Chicago Center
08:58AM 41.6400 -88.5642 266° West 401 461 36,000  Level Chicago Center
08:59AM 41.6325 -88.7111 266° West 400 460 36,000  Level Chicago Center
09:00AM 41.6236 -88.8853 266° West 397 457 36,000 480 Level Chicago Center
09:01AM 41.6150 -89.0339 266° West 403 464 37,000 480 Climbing Chicago Center
09:02AM 41.6072 -89.1825 266° West 404 465 37,000  Level Chicago Center
09:03AM 41.5992 -89.3314 266° West 404 465 37,000  Level Chicago Center
09:04AM 41.5908 -89.4792 266° West 401 461 37,000  Level Chicago Center
09:05AM 41.5803 -89.6494 265° West 399 459 37,000  Level Chicago Center
09:06AM 41.5714 -89.7989 266° West 404 465 37,000  Level Chicago Center
09:07AM 41.5622 -89.9464 265° West 403 464 37,000  Level Chicago Center
09:08AM 41.5531 -90.0933 265° West 402 463 37,000  Level Chicago Center
09:09AM 41.5436 -90.2417 265° West 404 465 37,000  Level Chicago Center
09:10AM 41.5336 -90.3931 265° West 409 471 37,000  Level Chicago Center
09:11AM 41.5222 -90.5686 265° West 402 463 37,000  Level Chicago Center
09:12AM 41.5108 -90.7181 264° West 406 467 37,000  Level Chicago Center
09:13AM 41.4992 -90.8669 264° West 405 466 37,000  Level Chicago Center
09:14AM 41.4886 -91.0133 265° West 400 460 37,000  Level Chicago Center
09:15AM 41.4778 -91.1589 264° West 396 456 37,000 420 Level Chicago Center
09:16AM 41.4669 -91.3067 264° West 400 460 37,900 780 Climbing Chicago Center
09:17AM 41.4547 -91.4619 264° West 404 465 38,700 720 Climbing Chicago Center
09:18AM 41.4431 -91.6136 264° West 413 475 39,500 600 Climbing Chicago Center
09:19AM 41.4294 -91.7917 264° West 406 467 40,000 240 Climbing Chicago Center
09:20AM 41.4172 -91.9397 264° West 406 467 40,000  Level Chicago Center
09:21AM 41.4058 -92.0869 264° West 404 465 40,000  Level Chicago Center
09:22AM 41.3933 -92.2333 264° West 401 461 40,000  Level Chicago Center
09:23AM 41.3789 -92.3908 263° West 398 458 40,000  Level Chicago Center
09:24AM 41.3669 -92.5356 264° West 398 458 40,000  Level Chicago Center
09:25AM 41.3539 -92.6811 263° West 400 460 40,000  Level Chicago Center
09:26AM 41.3497 -92.7414 265° West 400 460 40,000  Level Minneapolis Center
09:27AM 41.3356 -92.8853 263° West 399 459 40,000  Level Minneapolis Center
09:28AM 41.3233 -93.0319 264° West 401 461 40,000  Level Minneapolis Center
09:29AM 41.3097 -93.1758 263° West 398 458 40,000  Level Minneapolis Center
09:30AM 41.2961 -93.3206 263° West 399 459 40,000  Level Minneapolis Center
09:31AM 41.2819 -93.4644 263° West 398 458 40,000  Level Minneapolis Center
09:32AM 41.2672 -93.6339 263° West 391 450 40,000  Level Minneapolis Center
09:33AM 41.2536 -93.7783 263° West 395 455 40,000  Level Minneapolis Center
09:34AM 41.2389 -93.9217 262° West 396 456 40,000  Level Minneapolis Center
09:35AM 41.2244 -94.0642 262° West 395 455 40,000  Level Minneapolis Center
09:36AM 41.2083 -94.2269 263° West 395 455 40,000  Level Minneapolis Center
09:37AM 41.1953 -94.3686 263° West 390 449 40,000  Level Minneapolis Center
09:38AM 41.1778 -94.5128 261° West 392 451 40,000  Level Minneapolis Center
09:39AM 41.1650 -94.6553 263° West 390 449 40,000  Level Minneapolis Center
09:40AM 41.1500 -94.7981 262° West 390 449 40,000  Level Minneapolis Center
09:41AM 41.1339 -94.9406 262° West 389 448 40,000  Level Minneapolis Center
09:42AM 41.1172 -95.0858 261° West 394 453 40,000  Level Minneapolis Center
09:43AM 41.1019 -95.2303 262° West 395 455 40,000  Level Minneapolis Center
09:44AM 41.0850 -95.3786 261° West 399 459 40,000  Level Minneapolis Center
09:45AM 41.0678 -95.5308 262° West 411 473 40,000  Level Minneapolis Center
09:46AM 41.0508 -95.6778 261° West 405 466 40,000  Level Minneapolis Center
09:47AM 41.0333 -95.8217 261° West 396 456 40,000  Level Minneapolis Center
09:48AM 41.0139 -95.9950 262° West 394 453 40,000  Level Minneapolis Center
09:49AM 40.9975 -96.1397 262° West 394 453 40,000  Level Minneapolis Center
09:50AM 40.9803 -96.2831 261° West 392 451 40,000  Level Minneapolis Center
09:51AM 40.9758 -96.4278 268° West 391 450 40,000  Level Minneapolis Center
09:52AM 40.9725 -96.5717 268° West 391 450 40,000  Level Minneapolis Center
09:53AM 40.9686 -96.7144 268° West 389 448 40,000  Level Minneapolis Center
09:54AM 40.9642 -96.8586 268° West 389 448 40,000  Level Minneapolis Center
09:55AM 40.9600 -97.0014 268° West 389 448 40,000  Level Minneapolis Center
09:56AM 40.9561 -97.1442 268° West 388 447 40,000  Level Minneapolis Center
09:57AM 40.9508 -97.2853 267° West 386 444 40,000  Level Minneapolis Center
09:58AM 40.9444 -97.4414 267° West 385 443 40,000  Level Minneapolis Center
09:59AM 40.9392 -97.5839 267° West 387 445 40,000  Level Minneapolis Center
10:00AM 40.9347 -97.7253 268° West 386 444 40,000  Level Minneapolis Center
10:01AM 40.9289 -97.8656 267° West 383 441 40,000  Level Minneapolis Center
10:02AM 40.9244 -98.0064 268° West 381 438 40,000  Level Minneapolis Center
10:03AM 40.9183 -98.1486 267° West 385 443 40,000  Level Minneapolis Center
10:04AM 40.9117 -98.2922 267° West 388 447 40,000  Level Minneapolis Center
10:05AM 40.9047 -98.4453 267° West 386 444 40,000  Level Minneapolis Center
10:07AM 40.8992 -98.5867 267° West 387 445 40,000  Level Minneapolis Center
10:08AM 40.8919 -98.7283 266° West 386 444 40,000  Level Minneapolis Center
10:09AM 40.8856 -98.8706 267° West 388 447 40,000  Level Minneapolis Center
10:10AM 40.8794 -99.0133 267° West 389 448 40,000  Level Minneapolis Center
10:11AM 40.8708 -99.1819 266° West 389 448 40,000  Level Minneapolis Center
10:11AM 40.8683 -99.2400 267° West 390 449 40,000  Level Denver Center
10:12AM 40.8608 -99.3853 266° West 394 453 40,000  Level Denver Center
10:13AM 40.8536 -99.5319 266° West 398 458 40,000  Level Denver Center
10:14AM 40.8453 -99.6767 266° West 395 455 40,000  Level Denver Center
10:15AM 40.8375 -99.8183 266° West 390 449 40,000  Level Denver Center
10:16AM 40.8289 -99.9628 266° West 384 442 40,000  Level Denver Center
10:17AM 40.8197 -100.0981 265° West 386 444 40,000  Level Denver Center
10:18AM 40.8111 -100.2564 266° West 388 447 40,000  Level Denver Center
10:19AM 40.8031 -100.3925 266° West 389 448 40,000  Level Denver Center
10:20AM 40.7939 -100.5486 266° West 381 438 40,000  Level Denver Center
10:21AM 40.7814 -100.6897 263° West 381 438 40,000  Level Denver Center
10:22AM 40.7592 -100.8211 257° West 391 450 40,000  Level Denver Center
10:23AM 40.7369 -100.9583 258° West 396 456 40,000  Level Denver Center
10:24AM 40.7106 -101.1167 258° West 395 455 40,000  Level Denver Center
10:25AM 40.6869 -101.2542 257° West 400 460 40,000  Level Denver Center
10:26AM 40.6583 -101.4158 257° West 406 467 40,000  Level Denver Center
10:27AM 40.6333 -101.5583 257° West 415 478 40,000  Level Denver Center
10:28AM 40.6039 -101.7250 257° West 419 482 40,000  Level Denver Center
10:29AM 40.5792 -101.8606 257° West 400 460 40,000  Level Denver Center
10:30AM 40.5539 -101.9961 256° West 399 459 40,000  Level Denver Center
10:32AM 40.5250 -102.1572 257° West 404 465 40,000  Level Denver Center
10:33AM 40.4978 -102.2950 255° West 407 468 40,000  Level Denver Center
10:34AM 40.4694 -102.4544 257° West 401 461 40,000 -540 Level Denver Center
10:35AM 40.4436 -102.5900 256° West 400 460 39,000 -1,320 Descending Denver Center
10:36AM 40.4167 -102.7328 256° West 379 436 37,400 -2,100 Descending Denver Center
10:37AM 40.3919 -102.8656 256° West 374 430 34,700 -2,580 Descending Denver Center
10:38AM 40.3656 -102.9981 255° West 371 427 32,100 -2,280 Descending Denver Center
10:39AM 40.3428 -103.1253 257° West 357 411 30,000 -2,160 Descending Denver Center
10:40AM 40.3169 -103.2581 256° West 370 426 27,700 -2,460 Descending Denver Center
10:41AM 40.2875 -103.4122 256° West 370 426 25,000 -2,340 Descending Denver Center
10:42AM 40.2622 -103.5358 255° West 352 405 22,900 -1,800 Descending Denver Center
10:43AM 40.2400 -103.6536 256° West 334 384 21,300 -1,740 Descending Denver Center
10:44AM 40.2175 -103.7667 255° West 332 382 19,400 -1,560 Descending Denver Center
10:45AM 40.2044 -103.8825 262° West 299 344 18,100 -1,320 Descending Denver Center
10:46AM 40.2119 -103.9836 276° West 281 323 16,700 -1,260 Descending Denver Center
10:47AM 40.2228 -104.0869 278° West 267 307 15,500 -1,140 Descending Denver Center
10:48AM 40.2306 -104.1725 277° West 238 274 14,400 -1,380 Descending Denver Center
10:49AM 40.2275 -104.2600 267° West 238 274 12,700 -1,500 Descending Denver Center
10:50AM 40.2014 -104.3389 247° West 238 274 11,300 -1,320 Descending Denver Center
10:51AM 40.1758 -104.4244 249° West 237 273 10,000 -780 Descending Denver Center
10:52AM 40.1517 -104.5056 249° West 240 276 9,800 -720 Descending Denver Center
10:53AM 40.1261 -104.5914 249° West 236 272 8,600 -1,140 Descending Denver Center
10:54AM 40.1000 -104.6167 217° Southwest 242 278 8,200 -900 Descending Denver TRACON
10:54AM 40.0675 -104.6331 201° Southwest 242 278 7,700 -660 Descending Denver Center
10:55AM 40.0067 -104.6692 204° Southwest 240 276 7,100 -540 Descending Denver Center
10:56AM 39.9658 -104.6864 198° South 184 212 6,700 -720 Descending Denver Center
10:57AM 39.9122 -104.6867 180° South 155 178 5,700 -720 Descending Denver Center
10:58AM 39.8767 -104.6878 181° South 131 151 5,300 -420 Descending Denver Center
11:00AM 39.8617 -104.6732 North  Level Estimated
11:07AM 39.8617 -104.6732 North  Level Estimated
11:08AM 39.8617 -104.6732 North  Level Estimated
11:09AM 39.8617 -104.6732 North  Level Estimated